createdAt,value
2023-01-08T00:01:35.354Z,25.88
2023-01-08T00:03:35.466Z,25.83
2023-01-08T00:05:35.324Z,25.93
2023-01-08T00:07:35.342Z,25.85
2023-01-08T00:09:35.356Z,25.83
2023-01-08T00:11:35.434Z,25.82
2023-01-08T00:13:35.424Z,25.85
2023-01-08T00:15:35.409Z,25.89
2023-01-08T00:17:35.302Z,25.82
2023-01-08T00:19:35.320Z,25.85
2023-01-08T00:21:35.333Z,25.83
2023-01-08T00:23:35.381Z,25.83
2023-01-08T00:25:35.374Z,25.93
2023-01-08T00:27:35.419Z,25.93
2023-01-08T00:29:35.317Z,25.89
2023-01-08T00:31:35.387Z,25.83
2023-01-08T00:33:35.383Z,25.85
2023-01-08T00:35:35.468Z,25.85
2023-01-08T00:37:35.331Z,25.94
2023-01-08T00:39:35.522Z,25.85
2023-01-08T00:41:35.466Z,25.84
2023-01-08T00:43:35.418Z,25.81
2023-01-08T00:45:35.468Z,25.85
2023-01-08T00:47:35.458Z,25.80
2023-01-08T00:49:35.412Z,25.83
2023-01-08T00:51:35.459Z,25.88
2023-01-08T00:53:35.321Z,25.83
2023-01-08T00:55:35.430Z,25.86
2023-01-08T00:57:35.426Z,25.83
2023-01-08T00:59:35.509Z,25.84
2023-01-08T01:01:35.511Z,25.86
2023-01-08T01:03:35.392Z,25.84
2023-01-08T01:05:35.461Z,25.91
2023-01-08T01:07:35.386Z,25.85
2023-01-08T01:09:35.454Z,25.84
2023-01-08T01:11:35.423Z,25.85
2023-01-08T01:13:35.502Z,25.83
2023-01-08T01:15:35.517Z,25.90
2023-01-08T01:17:35.431Z,25.81
2023-01-08T01:19:35.502Z,25.80
2023-01-08T01:21:35.495Z,25.90
2023-01-08T01:23:35.440Z,25.83
2023-01-08T01:25:35.513Z,25.84
2023-01-08T01:27:35.351Z,25.86
2023-01-08T01:29:35.446Z,25.86
2023-01-08T01:31:35.479Z,25.83
2023-01-08T01:33:35.511Z,25.80
2023-01-08T01:35:35.556Z,25.85
2023-01-08T01:37:35.485Z,25.91
2023-01-08T01:39:35.505Z,25.81
2023-01-08T01:41:35.397Z,25.61
2023-01-08T01:43:35.539Z,25.81
2023-01-08T01:45:35.539Z,25.85
2023-01-08T01:47:35.407Z,25.79
2023-01-08T01:49:35.514Z,25.82
2023-01-08T01:51:35.411Z,25.84
2023-01-08T01:53:35.421Z,25.86
2023-01-08T01:55:35.470Z,25.86
2023-01-08T01:57:35.504Z,25.81
2023-01-08T01:59:35.507Z,25.86
2023-01-08T02:01:35.721Z,25.86
2023-01-08T02:03:35.534Z,25.83
2023-01-08T02:05:35.426Z,25.82
2023-01-08T02:07:35.499Z,25.83
2023-01-08T02:09:35.484Z,25.83
2023-01-08T02:11:35.404Z,25.84
2023-01-08T02:13:35.517Z,25.80
2023-01-08T02:15:35.501Z,25.88
2023-01-08T02:17:35.515Z,25.80
2023-01-08T02:19:35.575Z,25.91
2023-01-08T02:21:35.549Z,25.83
2023-01-08T02:23:35.557Z,25.86
2023-01-08T02:25:35.500Z,25.82
2023-01-08T02:27:35.578Z,25.89
2023-01-08T02:29:35.592Z,25.80
2023-01-08T02:31:35.525Z,25.92
2023-01-08T02:33:35.573Z,25.82
2023-01-08T02:35:35.528Z,25.83
2023-01-08T02:37:35.601Z,25.83
2023-01-08T02:39:35.571Z,25.88
2023-01-08T02:41:35.576Z,25.83
2023-01-08T02:43:35.533Z,25.83
2023-01-08T02:45:35.531Z,25.81
2023-01-08T02:47:35.493Z,25.84
2023-01-08T02:49:35.576Z,25.87
2023-01-08T02:51:35.574Z,25.83
2023-01-08T02:53:35.580Z,25.82
2023-01-08T02:55:35.574Z,25.83
2023-01-08T02:57:35.564Z,25.83
2023-01-08T02:59:35.526Z,25.81
2023-01-08T03:01:35.667Z,25.85
2023-01-08T03:03:35.461Z,25.85
2023-01-08T03:05:35.642Z,25.82
2023-01-08T03:07:35.497Z,25.83
2023-01-08T03:09:35.557Z,25.82
2023-01-08T03:11:35.580Z,25.83
2023-01-08T03:13:35.588Z,25.82
2023-01-08T03:15:35.550Z,25.83
2023-01-08T03:17:35.645Z,25.84
2023-01-08T03:19:35.546Z,25.84
2023-01-08T03:21:35.602Z,25.83
2023-01-08T03:23:35.523Z,25.82
2023-01-08T03:25:35.605Z,25.80
2023-01-08T03:27:35.651Z,25.84
2023-01-08T03:29:35.575Z,25.83
2023-01-08T03:31:35.566Z,25.83
2023-01-08T03:33:35.525Z,25.88
2023-01-08T03:35:35.511Z,25.82
2023-01-08T03:37:35.641Z,25.83
2023-01-08T03:39:35.628Z,25.84
2023-01-08T03:41:35.607Z,25.80
2023-01-08T03:43:35.551Z,25.84
2023-01-08T03:45:35.663Z,25.83
2023-01-08T03:47:35.537Z,25.80
2023-01-08T03:49:35.605Z,25.80
2023-01-08T03:51:35.547Z,25.80
2023-01-08T03:53:35.627Z,25.80
2023-01-08T03:55:35.569Z,25.80
2023-01-08T03:57:35.657Z,25.82
2023-01-08T03:59:35.640Z,25.86
2023-01-08T04:01:35.813Z,25.82
2023-01-08T04:03:35.574Z,25.90
2023-01-08T04:05:35.641Z,25.82
2023-01-08T04:07:35.688Z,25.80
2023-01-08T04:09:35.681Z,25.82
2023-01-08T04:11:35.690Z,25.81
2023-01-08T04:13:35.635Z,25.83
2023-01-08T04:15:35.708Z,25.80
2023-01-08T04:17:35.730Z,25.84
2023-01-08T04:19:35.671Z,25.81
2023-01-08T04:21:35.672Z,25.80
2023-01-08T04:23:35.592Z,25.80
2023-01-08T04:25:35.634Z,25.83
2023-01-08T04:27:35.678Z,25.84
2023-01-08T04:29:35.633Z,25.83
2023-01-08T04:31:35.725Z,25.85
2023-01-08T04:33:35.739Z,25.81
2023-01-08T04:35:35.644Z,25.80
2023-01-08T04:37:35.743Z,25.81
2023-01-08T04:39:35.722Z,25.82
2023-01-08T04:41:35.598Z,25.81
2023-01-08T04:43:35.594Z,25.83
2023-01-08T04:45:35.739Z,25.82
2023-01-08T04:47:35.681Z,25.86
2023-01-08T04:49:35.596Z,25.85
2023-01-08T04:51:35.714Z,25.81
2023-01-08T04:53:35.721Z,25.85
2023-01-08T04:55:36.150Z,25.91
2023-01-08T04:57:35.661Z,25.80
2023-01-08T04:59:35.783Z,25.82
2023-01-08T05:01:35.823Z,25.81
2023-01-08T05:03:35.761Z,25.83
2023-01-08T05:05:35.589Z,25.84
2023-01-08T05:07:35.702Z,25.86
2023-01-08T05:09:35.589Z,25.83
2023-01-08T05:11:35.751Z,25.80
2023-01-08T05:13:35.705Z,25.80
2023-01-08T05:15:35.775Z,25.83
2023-01-08T05:17:35.752Z,25.80
2023-01-08T05:19:38.086Z,25.84
2023-01-08T05:21:35.713Z,25.81
2023-01-08T05:23:35.739Z,25.99
2023-01-08T05:25:35.755Z,25.85
2023-01-08T05:27:35.633Z,25.86
2023-01-08T05:29:35.704Z,25.94
2023-01-08T05:31:35.707Z,25.83
2023-01-08T05:33:35.630Z,25.83
2023-01-08T05:35:35.678Z,25.83
2023-01-08T05:37:35.763Z,25.81
2023-01-08T05:39:35.717Z,25.82
2023-01-08T05:41:35.805Z,25.80
2023-01-08T05:43:35.631Z,25.83
2023-01-08T05:45:35.708Z,25.83
2023-01-08T05:47:35.751Z,25.85
2023-01-08T05:49:35.755Z,25.80
2023-01-08T05:51:35.735Z,25.83
2023-01-08T05:53:35.728Z,25.81
2023-01-08T05:55:35.790Z,25.81
2023-01-08T05:57:35.774Z,25.80
2023-01-08T05:59:35.713Z,25.89
2023-01-08T06:01:35.994Z,25.83
2023-01-08T06:03:35.807Z,25.83
2023-01-08T06:05:35.741Z,25.89
2023-01-08T06:07:35.766Z,25.83
2023-01-08T06:09:35.769Z,25.88
2023-01-08T06:11:35.791Z,25.83
2023-01-08T06:13:35.764Z,25.83
2023-01-08T06:15:35.808Z,25.83
2023-01-08T06:17:35.715Z,25.81
2023-01-08T06:19:35.652Z,25.82
2023-01-08T06:21:35.827Z,25.81
2023-01-08T06:23:35.772Z,25.91
2023-01-08T06:25:35.698Z,25.82
2023-01-08T06:27:35.660Z,25.83
2023-01-08T06:29:35.758Z,25.85
2023-01-08T06:31:35.885Z,25.80
2023-01-08T06:33:35.816Z,25.81
2023-01-08T06:35:35.796Z,25.90
2023-01-08T06:37:35.842Z,25.79
2023-01-08T06:39:35.839Z,25.80
2023-01-08T06:41:35.879Z,25.86
2023-01-08T06:43:36.313Z,25.88
2023-01-08T06:45:35.795Z,25.80
2023-01-08T06:47:35.833Z,25.84
2023-01-08T06:49:35.737Z,25.85
2023-01-08T06:51:35.798Z,25.89
2023-01-08T06:53:35.727Z,25.24
2023-01-08T06:55:35.860Z,25.08
2023-01-08T06:57:35.719Z,25.05
2023-01-08T06:59:35.876Z,24.94
2023-01-08T07:01:35.915Z,24.93
2023-01-08T07:03:35.992Z,24.67
2023-01-08T07:05:35.929Z,24.81
2023-01-08T07:07:35.772Z,24.70
2023-01-08T07:09:35.762Z,24.72
2023-01-08T07:11:35.793Z,24.66
2023-01-08T07:13:35.871Z,24.51
2023-01-08T07:15:36.048Z,24.54
2023-01-08T07:17:35.815Z,24.50
2023-01-08T07:19:35.778Z,24.47
2023-01-08T07:21:35.751Z,24.44
2023-01-08T07:23:35.815Z,24.40
2023-01-08T07:25:35.891Z,24.33
2023-01-08T07:27:35.795Z,24.35
2023-01-08T07:29:35.879Z,24.22
2023-01-08T07:31:35.887Z,24.20
2023-01-08T07:33:35.894Z,24.22
2023-01-08T07:35:35.929Z,24.09
2023-01-08T07:37:35.794Z,24.07
2023-01-08T07:39:35.822Z,24.05
2023-01-08T07:41:35.879Z,24.01
2023-01-08T07:43:35.768Z,23.99
2023-01-08T07:45:35.921Z,23.99
2023-01-08T07:47:35.782Z,23.89
2023-01-08T07:49:35.921Z,23.84
2023-01-08T07:51:36.032Z,23.83
2023-01-08T07:53:35.935Z,23.84
2023-01-08T07:55:35.889Z,23.83
2023-01-08T07:57:35.932Z,23.77
2023-01-08T07:59:35.941Z,23.79
2023-01-08T08:01:35.970Z,23.73
2023-01-08T08:03:35.933Z,23.72
2023-01-08T08:05:35.885Z,23.71
2023-01-08T08:07:35.821Z,23.67
2023-01-08T08:09:35.868Z,23.73
2023-01-08T08:11:35.728Z,23.70
2023-01-08T08:13:35.825Z,23.73
2023-01-08T08:15:35.936Z,23.66
2023-01-08T08:17:35.789Z,23.69
2023-01-08T08:19:35.834Z,23.70
2023-01-08T08:21:35.784Z,23.67
2023-01-08T08:23:36.901Z,23.61
2023-01-08T08:25:35.900Z,23.65
2023-01-08T08:27:35.917Z,23.65
2023-01-08T08:29:35.909Z,23.65
2023-01-08T08:31:36.080Z,23.59
2023-01-08T08:33:35.883Z,23.64
2023-01-08T08:35:36.176Z,23.68
2023-01-08T08:37:35.837Z,23.56
2023-01-08T08:39:35.954Z,23.57
2023-01-08T08:41:35.842Z,23.63
2023-01-08T08:43:35.852Z,23.68
2023-01-08T08:45:36.052Z,23.61
2023-01-08T08:47:35.902Z,23.69
2023-01-08T08:49:35.793Z,23.70
2023-01-08T08:51:35.937Z,23.65
2023-01-08T08:53:35.868Z,23.79
2023-01-08T08:55:35.932Z,23.72
2023-01-08T08:57:35.882Z,23.69
2023-01-08T08:59:36.007Z,23.69
2023-01-08T09:01:36.177Z,23.66
2023-01-08T09:03:35.947Z,23.81
2023-01-08T09:05:35.988Z,23.81
2023-01-08T09:07:36.013Z,23.73
2023-01-08T09:09:36.004Z,24.10
2023-01-08T09:11:36.014Z,23.75
2023-01-08T09:13:36.011Z,23.75
2023-01-08T09:15:35.899Z,23.70
2023-01-08T09:17:35.990Z,23.75
2023-01-08T09:19:35.941Z,23.81
2023-01-08T09:21:35.944Z,23.81
2023-01-08T09:23:35.989Z,23.84
2023-01-08T09:25:36.005Z,23.90
2023-01-08T09:27:35.955Z,23.84
2023-01-08T09:29:36.019Z,23.93
2023-01-08T09:31:35.956Z,23.91
2023-01-08T09:33:35.896Z,24.04
2023-01-08T09:35:35.905Z,23.69
2023-01-08T09:37:36.015Z,24.12
2023-01-08T09:39:35.983Z,24.18
2023-01-08T09:41:36.001Z,24.14
2023-01-08T09:43:35.916Z,24.19
2023-01-08T09:45:35.831Z,24.27
2023-01-08T09:47:35.945Z,24.23
2023-01-08T09:49:35.937Z,24.25
2023-01-08T09:51:35.996Z,24.24
2023-01-08T09:53:36.041Z,24.31
2023-01-08T09:55:35.923Z,24.16
2023-01-08T09:57:36.034Z,24.19
2023-01-08T09:59:35.913Z,24.22
2023-01-08T10:01:36.319Z,24.25
2023-01-08T10:03:35.978Z,24.20
2023-01-08T10:05:36.006Z,24.15
2023-01-08T10:07:35.951Z,24.16
2023-01-08T10:09:35.993Z,24.10
2023-01-08T10:11:36.061Z,24.04
2023-01-08T10:13:36.059Z,24.19
2023-01-08T10:15:36.096Z,24.28
2023-01-08T10:17:36.025Z,24.33
2023-01-08T10:19:35.995Z,24.34
2023-01-08T10:21:35.978Z,24.38
2023-01-08T10:23:36.003Z,24.43
2023-01-08T10:25:36.060Z,24.51
2023-01-08T10:27:36.018Z,24.54
2023-01-08T10:29:35.972Z,24.59
2023-01-08T10:31:36.125Z,24.59
2023-01-08T10:33:36.001Z,24.59
2023-01-08T10:35:36.021Z,24.57
2023-01-08T10:37:36.065Z,24.59
2023-01-08T10:39:36.027Z,24.59
2023-01-08T10:41:36.029Z,24.52
2023-01-08T10:43:36.012Z,24.58
2023-01-08T10:45:36.075Z,24.62
2023-01-08T10:47:36.118Z,24.68
2023-01-08T10:49:36.224Z,24.70
2023-01-08T10:51:36.117Z,24.81
2023-01-08T10:53:36.088Z,24.92
2023-01-08T10:55:36.092Z,24.99
2023-01-08T10:57:36.036Z,25.09
2023-01-08T10:59:36.068Z,25.21
2023-01-08T11:01:36.191Z,25.23
2023-01-08T11:03:36.109Z,25.54
2023-01-08T11:05:36.044Z,25.80
2023-01-08T11:07:36.024Z,25.82
2023-01-08T11:09:36.148Z,25.65
2023-01-08T11:11:36.065Z,25.65
2023-01-08T11:13:36.118Z,25.75
2023-01-08T11:15:36.121Z,25.65
2023-01-08T11:17:36.149Z,25.74
2023-01-08T11:19:36.126Z,25.77
2023-01-08T11:21:36.165Z,25.75
2023-01-08T11:23:36.053Z,25.77
2023-01-08T11:25:36.168Z,25.64
2023-01-08T11:27:36.127Z,25.64
2023-01-08T11:29:36.128Z,25.65
2023-01-08T11:31:36.241Z,25.75
2023-01-08T11:33:36.182Z,25.60
2023-01-08T11:35:36.182Z,25.29
2023-01-08T11:37:36.157Z,25.63
2023-01-08T11:39:36.112Z,25.60
2023-01-08T11:41:36.146Z,25.63
2023-01-08T11:43:36.129Z,25.65
2023-01-08T11:45:36.085Z,25.52
2023-01-08T11:47:36.112Z,25.65
2023-01-08T11:49:36.264Z,25.64
2023-01-08T11:51:36.147Z,25.65
2023-01-08T11:53:36.113Z,25.64
2023-01-08T11:55:36.147Z,25.75
2023-01-08T11:57:36.102Z,25.61
2023-01-08T11:59:36.181Z,25.61
2023-01-08T12:01:36.126Z,25.74
2023-01-08T12:03:36.130Z,25.58
2023-01-08T12:05:36.080Z,25.47
2023-01-08T12:07:36.132Z,25.58
2023-01-08T12:09:36.096Z,25.54
2023-01-08T12:11:36.177Z,25.56
2023-01-08T12:13:36.136Z,25.57
2023-01-08T12:15:36.140Z,25.65
2023-01-08T12:17:36.207Z,25.51
2023-01-08T12:19:36.060Z,25.52
2023-01-08T12:21:36.197Z,25.65
2023-01-08T12:23:36.187Z,25.38
2023-01-08T12:25:36.139Z,25.45
2023-01-08T12:27:55.772Z,25.51
2023-01-08T12:29:36.184Z,25.57
2023-01-08T12:31:36.200Z,25.61
2023-01-08T12:33:36.218Z,25.52
2023-01-08T12:35:36.221Z,25.51
2023-01-08T12:37:36.283Z,25.44
2023-01-08T12:39:36.070Z,25.09
2023-01-08T12:41:36.134Z,25.25
2023-01-08T12:43:36.099Z,25.23
2023-01-08T12:45:36.170Z,25.27
2023-01-08T12:47:36.161Z,25.39
2023-01-08T12:49:36.199Z,25.39
2023-01-08T12:51:36.244Z,25.33
2023-01-08T12:53:36.375Z,25.23
2023-01-08T12:55:36.116Z,25.24
2023-01-08T12:57:36.114Z,25.21
2023-01-08T12:59:36.253Z,25.17
2023-01-08T13:01:36.379Z,25.24
2023-01-08T13:03:36.256Z,25.40
2023-01-08T13:05:36.163Z,25.52
2023-01-08T13:07:36.211Z,25.56
2023-01-08T13:09:36.211Z,25.58
2023-01-08T13:11:36.241Z,25.60
2023-01-08T13:13:36.066Z,25.49
2023-01-08T13:15:36.227Z,25.52
2023-01-08T13:17:36.341Z,25.44
2023-01-08T13:19:36.211Z,25.52
2023-01-08T13:21:36.180Z,25.58
2023-01-08T13:23:36.430Z,25.47
2023-01-08T13:25:36.320Z,25.46
2023-01-08T13:27:36.217Z,25.75
2023-01-08T13:29:36.232Z,25.75
2023-01-08T13:31:36.316Z,25.65
2023-01-08T13:33:36.153Z,25.61
2023-01-08T13:35:36.250Z,25.60
2023-01-08T13:37:36.225Z,25.61
2023-01-08T13:39:36.305Z,25.65
2023-01-08T13:41:36.148Z,25.52
2023-01-08T13:43:36.304Z,25.53
2023-01-08T13:45:36.288Z,25.51
2023-01-08T13:47:36.294Z,25.42
2023-01-08T13:49:36.284Z,25.45
2023-01-08T13:51:36.336Z,25.47
2023-01-08T13:53:36.242Z,25.43
2023-01-08T13:55:36.348Z,25.37
2023-01-08T13:57:36.371Z,25.31
2023-01-08T13:59:36.293Z,25.29
2023-01-08T14:01:36.315Z,25.26
2023-01-08T14:03:36.241Z,25.36
2023-01-08T14:05:36.311Z,25.40
2023-01-08T14:07:36.318Z,25.29
2023-01-08T14:09:36.243Z,25.35
2023-01-08T14:11:36.364Z,25.39
2023-01-08T14:13:36.253Z,25.40
2023-01-08T14:15:36.266Z,25.50
2023-01-08T14:17:36.304Z,25.45
2023-01-08T14:19:36.267Z,25.44
2023-01-08T14:21:36.267Z,25.65
2023-01-08T14:23:36.221Z,25.50
2023-01-08T14:25:36.374Z,25.51
2023-01-08T14:27:36.317Z,25.46
2023-01-08T14:29:36.200Z,25.23
2023-01-08T14:31:36.368Z,25.20
2023-01-08T14:33:36.274Z,25.29
2023-01-08T14:35:36.221Z,25.23
2023-01-08T14:37:36.340Z,25.29
2023-01-08T14:39:36.322Z,25.33
2023-01-08T14:41:36.321Z,25.52
2023-01-08T14:43:36.510Z,25.71
2023-01-08T14:45:36.368Z,25.57
2023-01-08T14:47:36.285Z,25.49
2023-01-08T14:49:36.321Z,25.52
2023-01-08T14:51:36.327Z,25.48
2023-01-08T14:53:36.266Z,25.48
2023-01-08T14:55:36.361Z,25.33
2023-01-08T14:57:36.375Z,25.25
2023-01-08T14:59:36.232Z,25.19
2023-01-08T15:01:36.404Z,25.26
2023-01-08T15:03:36.328Z,25.65
2023-01-08T15:05:36.334Z,25.25
2023-01-08T15:07:37.125Z,25.12
2023-01-08T15:09:36.385Z,25.07
2023-01-08T15:11:36.268Z,25.09
2023-01-08T15:13:36.311Z,24.95
2023-01-08T15:15:36.259Z,24.99
2023-01-08T15:17:36.303Z,24.90
2023-01-08T15:19:36.316Z,24.87
2023-01-08T15:21:36.301Z,24.83
2023-01-08T15:23:36.414Z,24.74
2023-01-08T15:25:36.299Z,24.74
2023-01-08T15:27:36.410Z,24.66
2023-01-08T15:29:36.401Z,24.89
2023-01-08T15:31:36.288Z,24.55
2023-01-08T15:33:36.387Z,24.52
2023-01-08T15:35:36.297Z,24.54
2023-01-08T15:37:36.352Z,24.52
2023-01-08T15:39:36.243Z,24.40
2023-01-08T15:41:36.308Z,24.38
2023-01-08T15:43:36.294Z,24.33
2023-01-08T15:45:36.400Z,24.28
2023-01-08T15:47:36.318Z,24.25
2023-01-08T15:49:36.348Z,24.20
2023-01-08T15:51:36.310Z,24.16
2023-01-08T15:53:36.362Z,24.10
2023-01-08T15:55:36.354Z,24.10
2023-01-08T15:57:36.351Z,24.02
2023-01-08T15:59:36.302Z,24.00
2023-01-08T16:01:36.599Z,23.90
2023-01-08T16:03:36.360Z,23.90
2023-01-08T16:05:36.480Z,23.88
2023-01-08T16:07:36.445Z,23.83
2023-01-08T16:09:36.357Z,27.38
2023-01-08T16:11:36.341Z,25.80
2023-01-08T16:13:36.412Z,25.83
2023-01-08T16:15:36.381Z,25.82
2023-01-08T16:17:36.324Z,25.80
2023-01-08T16:19:36.511Z,25.82
2023-01-08T16:21:36.368Z,25.80
2023-01-08T16:23:36.524Z,25.82
2023-01-08T16:25:36.438Z,25.80
2023-01-08T16:27:36.299Z,25.85
2023-01-08T16:29:36.389Z,25.83
2023-01-08T16:31:38.437Z,25.80
2023-01-08T16:33:36.427Z,25.80
2023-01-08T16:35:36.462Z,25.89
2023-01-08T16:37:36.342Z,25.83
2023-01-08T16:39:36.480Z,25.81
2023-01-08T16:41:36.429Z,25.83
2023-01-08T16:43:36.332Z,25.83
2023-01-08T16:45:36.593Z,25.82
2023-01-08T16:47:36.350Z,25.82
2023-01-08T16:49:36.404Z,25.80
2023-01-08T16:51:36.487Z,25.90
2023-01-08T16:53:36.371Z,25.85
2023-01-08T16:55:36.452Z,25.94
2023-01-08T16:57:36.410Z,25.80
2023-01-08T16:59:36.288Z,25.89
2023-01-08T17:01:36.485Z,25.90
2023-01-08T17:03:36.473Z,25.82
2023-01-08T17:05:36.461Z,25.81
2023-01-08T17:07:36.445Z,25.78
2023-01-08T17:09:36.506Z,25.90
2023-01-08T17:11:36.362Z,25.90
2023-01-08T17:13:36.453Z,25.85
2023-01-08T17:15:36.511Z,25.84
2023-01-08T17:17:36.374Z,25.80
2023-01-08T17:19:36.520Z,25.80
2023-01-08T17:21:36.541Z,25.80
2023-01-08T17:23:36.460Z,25.80
2023-01-08T17:25:36.485Z,25.81
2023-01-08T17:27:36.535Z,25.81
2023-01-08T17:29:36.504Z,25.79
2023-01-08T17:31:36.614Z,25.91
2023-01-08T17:33:36.515Z,25.83
2023-01-08T17:35:36.399Z,25.81
2023-01-08T17:37:36.443Z,25.86
2023-01-08T17:39:36.422Z,25.84
2023-01-08T17:41:36.520Z,25.86
2023-01-08T17:43:36.547Z,25.81
2023-01-08T17:45:36.534Z,25.90
2023-01-08T17:47:36.505Z,25.80
2023-01-08T17:49:36.567Z,25.82
2023-01-08T17:51:36.787Z,25.87
2023-01-08T17:53:36.512Z,25.75
2023-01-08T17:55:36.513Z,25.81
2023-01-08T17:57:36.509Z,25.80
2023-01-08T17:59:36.611Z,25.81
2023-01-08T18:01:36.558Z,25.51
2023-01-08T18:03:36.544Z,25.80
2023-01-08T18:05:36.376Z,25.83
2023-01-08T18:07:36.446Z,25.86
2023-01-08T18:09:36.800Z,25.81
2023-01-08T18:11:36.530Z,25.82
2023-01-08T18:13:36.575Z,25.82
2023-01-08T18:15:36.542Z,25.82
2023-01-08T18:17:36.587Z,25.86
2023-01-08T18:19:36.517Z,25.83
2023-01-08T18:21:36.505Z,25.82
2023-01-08T18:23:36.555Z,25.82
2023-01-08T18:25:36.515Z,25.86
2023-01-08T18:27:36.462Z,25.80
2023-01-08T18:29:36.554Z,25.81
2023-01-08T18:31:36.607Z,25.85
2023-01-08T18:33:36.506Z,25.76
2023-01-08T18:35:36.552Z,25.82
2023-01-08T18:37:36.498Z,25.80
2023-01-08T18:39:36.556Z,25.80
2023-01-08T18:41:36.492Z,25.81
2023-01-08T18:43:36.552Z,25.86
2023-01-08T18:45:36.626Z,25.83
2023-01-08T18:47:36.478Z,25.81
2023-01-08T18:49:36.459Z,25.86
2023-01-08T18:51:36.537Z,25.91
2023-01-08T18:53:36.522Z,25.94
2023-01-08T18:55:36.558Z,25.88
2023-01-08T18:57:36.616Z,25.86
2023-01-08T18:59:36.597Z,25.80
2023-01-08T19:01:36.629Z,25.86
2023-01-08T19:03:36.557Z,25.85
2023-01-08T19:05:36.631Z,25.84
2023-01-08T19:07:36.631Z,25.86
2023-01-08T19:09:36.464Z,25.81
2023-01-08T19:11:36.507Z,25.83
2023-01-08T19:13:36.644Z,25.82
2023-01-08T19:15:36.604Z,25.84
2023-01-08T19:17:36.619Z,25.86
2023-01-08T19:19:36.606Z,25.86
2023-01-08T19:21:36.613Z,25.86
2023-01-08T19:23:36.569Z,25.85
2023-01-08T19:25:36.586Z,25.80
2023-01-08T19:27:36.507Z,25.85
2023-01-08T19:29:36.485Z,25.85
2023-01-08T19:31:36.620Z,25.93
2023-01-08T19:33:36.630Z,25.91
2023-01-08T19:35:37.453Z,25.80
2023-01-08T19:37:36.719Z,25.80
2023-01-08T19:39:36.678Z,25.86
2023-01-08T19:41:36.713Z,25.83
2023-01-08T19:43:36.630Z,25.83
2023-01-08T19:45:36.645Z,25.81
2023-01-08T19:47:36.561Z,25.81
2023-01-08T19:49:36.658Z,25.89
2023-01-08T19:51:36.683Z,25.84
2023-01-08T19:53:36.589Z,25.81
2023-01-08T19:55:36.560Z,25.83
2023-01-08T19:57:36.692Z,25.86
2023-01-08T19:59:36.736Z,25.83
2023-01-08T20:01:36.757Z,25.84
2023-01-08T20:03:36.725Z,25.86
2023-01-08T20:05:36.686Z,25.85
2023-01-08T20:07:36.561Z,25.86
2023-01-08T20:09:36.748Z,25.91
2023-01-08T20:11:36.684Z,25.85
2023-01-08T20:13:36.571Z,25.80
2023-01-08T20:15:36.572Z,25.86
2023-01-08T20:17:36.692Z,25.89
2023-01-08T20:19:36.664Z,25.84
2023-01-08T20:21:36.687Z,25.85
2023-01-08T20:23:36.675Z,25.86
2023-01-08T20:25:36.648Z,25.84
2023-01-08T20:27:36.647Z,25.83
2023-01-08T20:29:36.688Z,25.86
2023-01-08T20:31:36.673Z,25.89
2023-01-08T20:33:36.584Z,25.83
2023-01-08T20:35:36.671Z,25.91
2023-01-08T20:37:36.715Z,25.81
2023-01-08T20:39:36.727Z,25.82
2023-01-08T20:41:36.796Z,25.85
2023-01-08T20:43:36.690Z,25.82
2023-01-08T20:45:36.836Z,25.80
2023-01-08T20:47:36.773Z,25.80
2023-01-08T20:49:36.650Z,25.80
2023-01-08T20:51:36.733Z,25.83
2023-01-08T20:53:36.730Z,25.83
2023-01-08T20:55:36.578Z,25.86
2023-01-08T20:57:36.630Z,25.79
2023-01-08T20:59:36.757Z,25.82
2023-01-08T21:01:36.656Z,25.81
2023-01-08T21:03:36.731Z,25.84
2023-01-08T21:05:36.652Z,25.84
2023-01-08T21:07:36.673Z,25.85
2023-01-08T21:09:37.399Z,25.85
2023-01-08T21:11:36.759Z,25.83
2023-01-08T21:13:36.740Z,25.85
2023-01-08T21:15:36.958Z,25.80
2023-01-08T21:17:36.720Z,25.81
2023-01-08T21:19:36.778Z,25.81
2023-01-08T21:21:39.049Z,25.80
2023-01-08T21:23:36.649Z,25.85
2023-01-08T21:25:36.783Z,25.90
2023-01-08T21:27:36.726Z,25.89
2023-01-08T21:29:36.708Z,25.80
2023-01-08T21:31:36.835Z,25.88
2023-01-08T21:33:36.778Z,25.85
2023-01-08T21:35:36.980Z,25.82
2023-01-08T21:37:36.764Z,25.86
2023-01-08T21:39:36.941Z,25.79
2023-01-08T21:41:36.752Z,25.84
2023-01-08T21:43:36.718Z,25.83
2023-01-08T21:45:36.801Z,25.89
2023-01-08T21:47:36.808Z,25.83
2023-01-08T21:49:36.709Z,25.86
2023-01-08T21:51:36.669Z,25.91
2023-01-08T21:53:36.800Z,25.92
2023-01-08T21:55:36.860Z,25.90
2023-01-08T21:57:36.739Z,25.91
2023-01-08T21:59:36.773Z,25.84
2023-01-08T22:01:36.816Z,25.85
2023-01-08T22:03:36.691Z,25.85
2023-01-08T22:05:36.822Z,25.85
2023-01-08T22:07:36.898Z,25.85
2023-01-08T22:09:37.077Z,25.86
2023-01-08T22:11:37.270Z,25.84
2023-01-08T22:13:36.797Z,25.85
2023-01-08T22:15:36.781Z,25.83
2023-01-08T22:17:36.808Z,25.85
2023-01-08T22:19:36.726Z,25.89
2023-01-08T22:21:36.821Z,25.83
2023-01-08T22:23:36.805Z,25.80
2023-01-08T22:25:36.857Z,25.85
2023-01-08T22:27:36.721Z,25.83
2023-01-08T22:29:36.831Z,25.88
2023-01-08T22:31:36.865Z,25.81
2023-01-08T22:33:36.775Z,25.52
2023-01-08T22:35:36.851Z,25.81
2023-01-08T22:37:36.777Z,25.83
2023-01-08T22:39:36.786Z,25.84
2023-01-08T22:41:36.811Z,25.84
2023-01-08T22:43:36.784Z,25.84
2023-01-08T22:45:36.899Z,25.86
2023-01-08T22:47:36.814Z,25.84
2023-01-08T22:49:36.751Z,25.81
2023-01-08T22:51:36.741Z,25.83
2023-01-08T22:53:36.844Z,25.87
2023-01-08T22:55:36.846Z,25.85
2023-01-08T22:57:36.851Z,25.93
2023-01-08T22:59:36.817Z,25.86
2023-01-08T23:01:36.854Z,25.83
2023-01-08T23:03:36.806Z,25.90
2023-01-08T23:05:36.747Z,25.86
2023-01-08T23:07:36.763Z,25.82
2023-01-08T23:09:36.806Z,25.84
2023-01-08T23:11:36.896Z,25.82
2023-01-08T23:13:36.884Z,25.85
2023-01-08T23:15:36.820Z,25.92
2023-01-08T23:17:44.384Z,25.85
2023-01-08T23:19:36.910Z,25.83
2023-01-08T23:21:36.732Z,25.93
2023-01-08T23:23:36.843Z,25.81
2023-01-08T23:25:36.902Z,25.90
2023-01-08T23:27:36.751Z,25.83
2023-01-08T23:29:36.844Z,25.82
2023-01-08T23:31:36.811Z,25.89
2023-01-08T23:33:36.785Z,25.84
2023-01-08T23:35:36.913Z,25.83
2023-01-08T23:37:36.896Z,25.86
2023-01-08T23:39:36.931Z,25.80
2023-01-08T23:41:36.915Z,25.83
2023-01-08T23:43:36.853Z,25.85
2023-01-08T23:45:36.860Z,25.92
2023-01-08T23:47:36.850Z,25.83
2023-01-08T23:49:36.928Z,25.85
2023-01-08T23:51:36.873Z,25.86
2023-01-08T23:53:36.902Z,25.83
2023-01-08T23:55:36.809Z,25.83
2023-01-08T23:57:36.892Z,25.88
2023-01-08T23:59:36.821Z,25.86
